Time;durP1;ratioP1;P1;durP2;ratioP2;P2;SDS_P1;SDS_P2;PMS_P1;PMS_P2;Temp;Humidity;BMP_temperature;BMP_pressure;BME280_temperature;BME280_humidity;BME280_pressure;Samples;Min_cycle;Max_cycle;Signal;HPM_P1;HPM_P2
2021/04/12 00:01:56;;;;;;;0.70;0.60;;;1.60;99.90;;;1.76;100.00;-20729.75;4972780;28;20187;-70
2021/04/12 00:04:35;;;;;;;0.70;0.70;;;1.50;99.90;;;1.81;100.00;-20731.03;5002186;28;20184;-70
2021/04/12 00:07:09;;;;;;;0.70;0.60;;;1.50;99.90;;;1.74;100.00;-20729.22;4974613;28;20534;-69
2021/04/12 00:09:42;;;;;;;0.70;0.60;;;1.50;99.90;;;1.79;100.00;-20730.59;4973970;28;20180;-69
2021/04/12 00:12:15;;;;;;;0.70;0.60;;;1.50;99.90;;;1.77;100.00;-20730.06;4974556;28;20208;-70
2021/04/12 00:14:47;;;;;;;0.70;0.60;;;1.40;99.90;;;1.75;100.00;-20729.50;4974090;28;20176;-70
2021/04/12 00:17:20;;;;;;;0.80;0.70;;;1.50;99.90;;;1.71;100.00;-20728.38;4974220;28;20313;-71
2021/04/12 00:19:57;;;;;;;0.70;0.60;;;1.40;99.90;;;1.71;100.00;-20728.22;4973802;28;20560;-69
2021/04/12 00:22:34;;;;;;;0.70;0.60;;;1.40;99.90;;;1.69;100.00;-20727.81;4973431;28;20192;-69
2021/04/12 00:25:08;;;;;;;0.70;0.63;;;1.40;99.90;;;1.59;100.00;-20725.03;4974416;28;20180;-70
2021/04/12 00:27:39;;;;;;;0.70;0.60;;;1.30;99.90;;;1.58;100.00;-20724.75;4974185;28;20223;-70
2021/04/12 00:30:16;;;;;;;0.75;0.70;;;1.30;99.90;;;1.53;100.00;-20723.34;4973054;28;20193;-70
2021/04/12 00:32:51;;;;;;;0.70;0.60;;;1.30;99.90;;;1.49;100.00;-20722.22;4973613;28;20520;-70
2021/04/12 00:35:26;;;;;;;0.70;0.60;;;1.30;99.90;;;1.48;100.00;-20722.09;4973092;28;20188;-70
2021/04/12 00:37:59;;;;;;;0.70;0.60;;;1.20;99.90;;;1.44;100.00;-20720.97;4974236;28;20196;-70
2021/04/12 00:40:42;;;;;;;5.57;2.67;;;1.20;99.90;;;1.45;100.00;-20721.25;4973423;28;20172;-70
2021/04/12 00:43:24;;;;;;;0.70;0.70;;;1.20;99.90;;;1.50;100.00;-20722.50;4974281;28;20215;-70
2021/04/12 00:46:37;;;;;;;0.70;0.60;;;1.20;99.90;;;1.43;100.00;-20720.81;4973718;28;20243;-70
2021/04/12 00:49:39;;;;;;;0.70;0.60;;;1.20;99.90;;;1.43;100.00;-20720.69;4965616;28;20569;-70
2021/04/12 00:52:42;;;;;;;0.70;0.60;;;1.20;99.90;;;1.39;100.00;-20719.56;4953546;29;20284;-70
2021/04/12 00:55:28;;;;;;;0.70;0.60;;;1.10;99.90;;;1.34;100.00;-20718.31;4995460;28;20571;-70
2021/04/12 00:58:06;;;;;;;0.70;0.60;;;1.10;99.90;;;1.29;100.00;-20716.91;5005074;28;20584;-70
2021/04/12 01:00:37;;;;;;;0.70;0.70;;;1.10;99.90;;;1.31;100.00;-20717.47;4989229;28;20219;-70
2021/04/12 01:03:35;;;;;;;0.80;0.70;;;1.00;99.90;;;1.26;100.00;-20716.06;4978380;28;20192;-70
2021/04/12 01:06:12;;;;;;;0.70;0.60;;;1.00;99.90;;;1.19;100.00;-20714.25;4973522;28;20240;-70
2021/04/12 01:09:16;;;;;;;0.70;0.70;;;0.90;99.90;;;1.12;100.00;-20712.16;4976757;28;20192;-70
2021/04/12 01:12:53;;;;;;;0.70;0.65;;;0.90;99.90;;;1.18;100.00;-20713.97;4976459;28;20226;-70
2021/04/12 01:16:02;;;;;;;0.70;0.60;;;1.10;99.90;;;1.37;100.00;-20719.00;4956976;28;20196;-70
2021/04/12 01:18:51;;;;;;;0.70;0.60;;;1.20;99.90;;;1.32;100.00;-20717.59;5008140;28;20204;-70
2021/04/12 01:22:44;;;;;;;0.70;0.65;;;1.20;99.90;;;1.26;100.00;-20716.06;4977097;28;20199;-70
2021/04/12 01:26:08;;;;;;;0.70;0.60;;;1.10;99.90;;;1.21;100.00;-20714.69;5008335;28;20485;-70
2021/04/12 01:29:31;;;;;;;0.80;0.80;;;1.10;99.90;;;1.13;100.00;-20712.44;4936231;29;20645;-70
2021/04/12 01:32:56;;;;;;;0.75;0.70;;;1.00;99.90;;;1.09;100.00;-20711.47;4921762;29;20202;-71
2021/04/12 01:35:54;;;;;;;0.70;0.60;;;0.90;99.90;;;1.11;100.00;-20711.88;4973505;28;20205;-70
2021/04/12 01:38:34;;;;;;;0.70;0.60;;;1.00;99.90;;;1.23;100.00;-20715.22;4956873;28;20279;-70
2021/04/12 01:41:23;;;;;;;0.70;0.60;;;1.00;99.90;;;1.15;100.00;-20713.00;4964122;28;20550;-70
2021/04/12 01:44:23;;;;;;;0.70;0.57;;;0.90;99.90;;;1.04;100.00;-20710.06;4975656;28;20204;-69
2021/04/12 01:47:06;;;;;;;0.70;0.60;;;0.80;99.90;;;1.03;100.00;-20709.63;4977085;28;20219;-69
2021/04/12 01:49:59;;;;;;;0.70;0.60;;;0.70;99.90;;;0.91;100.00;-20706.44;4976814;28;20196;-70
2021/04/12 01:53:17;;;;;;;0.80;0.70;;;0.70;99.90;;;0.80;100.00;-20703.50;4971083;28;20196;-70
2021/04/12 01:56:16;;;;;;;0.80;0.70;;;0.60;99.90;;;0.86;100.00;-20705.16;4954701;28;20196;-70
2021/04/12 01:58:50;;;;;;;0.70;0.60;;;0.60;99.90;;;0.77;100.00;-20702.66;4975608;28;20211;-70
2021/04/12 02:01:58;;;;;;;0.70;0.60;;;0.60;99.90;;;0.78;100.00;-20702.78;5007362;28;20199;-70
2021/04/12 02:04:47;;;;;;;0.70;0.70;;;0.50;99.90;;;0.75;100.00;-20702.09;4976756;28;20184;-71
2021/04/12 02:07:34;;;;;;;0.77;0.70;;;0.50;99.90;;;0.72;100.00;-20701.25;4973127;28;20222;-70
2021/04/12 02:10:32;;;;;;;0.70;0.60;;;0.40;99.90;;;0.73;100.00;-20701.53;4976798;28;20192;-70
2021/04/12 02:13:15;;;;;;;0.70;0.68;;;0.40;99.90;;;0.76;100.00;-20702.38;4976435;28;20720;-69
2021/04/12 02:15:58;;;;;;;0.80;0.70;;;0.50;99.90;;;0.85;100.00;-20704.88;4976022;28;20184;-70
2021/04/12 02:19:02;;;;;;;0.70;0.60;;;0.60;99.90;;;0.86;100.00;-20705.16;4975608;28;20592;-70
2021/04/12 02:21:50;;;;;;;0.70;0.60;;;0.50;99.90;;;0.82;100.00;-20704.06;4975852;28;20192;-71
2021/04/12 02:24:29;;;;;;;0.70;0.70;;;0.50;99.90;;;0.83;100.00;-20704.31;4976373;28;20184;-69
2021/04/12 02:27:12;;;;;;;0.80;0.80;;;0.50;99.90;;;0.81;100.00;-20703.63;4976212;28;20263;-70
2021/04/12 02:30:02;;;;;;;0.73;0.70;;;0.50;99.90;;;0.73;100.00;-20701.66;5006289;28;20200;-70
2021/04/12 02:32:58;;;;;;;0.70;0.70;;;0.50;99.90;;;0.80;100.00;-20703.50;4975822;28;20180;-70
2021/04/12 02:35:37;;;;;;;0.70;0.60;;;0.60;99.90;;;0.78;100.00;-20702.78;4962744;28;20184;-70
2021/04/12 02:38:21;;;;;;;0.70;0.60;;;0.60;99.90;;;0.82;100.00;-20703.91;4976048;28;20203;-71
2021/04/12 02:41:08;;;;;;;0.70;0.60;;;0.60;99.90;;;0.83;100.00;-20704.31;4976374;28;20190;-71
2021/04/12 02:43:59;;;;;;;0.70;0.60;;;0.60;99.90;;;0.84;100.00;-20704.59;4970674;28;20247;-71
2021/04/12 02:46:54;;;;;;;0.70;0.60;;;0.60;99.90;;;0.92;100.00;-20706.84;4977612;28;20210;-70
2021/04/12 02:49:32;;;;;;;0.70;0.60;;;0.60;99.90;;;0.84;100.00;-20704.47;4975439;28;20207;-70
2021/04/12 02:52:17;;;;;;;0.70;0.60;;;0.50;99.90;;;0.81;100.00;-20703.78;4975395;28;20172;-70
2021/04/12 02:55:22;;;;;;;0.70;0.60;;;0.40;99.90;;;0.78;100.00;-20702.94;4974756;28;20177;-70
2021/04/12 02:58:42;;;;;;;0.70;0.60;;;0.40;99.90;;;0.79;100.00;-20703.22;4958204;28;20224;-70
2021/04/12 03:01:29;;;;;;;0.70;0.60;;;0.40;99.90;;;0.86;100.00;-20705.16;4933939;29;20204;-71
2021/04/12 03:04:22;;;;;;;0.85;0.85;;;0.60;99.90;;;0.91;100.00;-20706.44;4966774;28;20192;-71
2021/04/12 03:07:31;;;;;;;0.70;0.60;;;0.70;99.90;;;0.98;100.00;-20708.38;4974508;28;20660;-71
2021/04/12 03:10:28;;;;;;;0.70;0.60;;;0.70;99.90;;;0.98;100.00;-20708.25;4975478;28;20188;-71
2021/04/12 03:13:42;;;;;;;0.70;0.60;;;0.70;99.90;;;1.03;100.00;-20709.63;4973346;28;20224;-70
2021/04/12 03:16:35;;;;;;;1.50;1.40;;;0.80;99.90;;;0.98;100.00;-20708.25;4975339;28;20192;-71
2021/04/12 03:19:52;;;;;;;0.70;0.60;;;0.70;99.90;;;0.95;100.00;-20707.69;4968581;28;20208;-70
2021/04/12 03:22:40;;;;;;;0.70;0.60;;;0.70;99.90;;;0.94;100.00;-20707.41;4973758;28;20189;-70
2021/04/12 03:25:40;;;;;;;0.70;0.70;;;0.70;99.90;;;0.95;100.00;-20707.69;4974109;28;20198;-70
2021/04/12 03:28:43;;;;;;;0.70;0.60;;;0.70;99.90;;;0.89;100.00;-20706.00;4975186;28;20224;-70
2021/04/12 03:31:34;;;;;;;0.70;0.60;;;0.70;99.90;;;0.83;100.00;-20704.31;4971223;28;20641;-70
2021/04/12 03:34:23;;;;;;;0.70;0.60;;;0.60;99.90;;;0.76;100.00;-20702.38;4975047;28;20188;-70
2021/04/12 03:37:31;;;;;;;0.70;0.63;;;0.50;99.90;;;0.77;100.00;-20702.66;4973330;28;20192;-71
2021/04/12 03:40:07;;;;;;;0.70;0.60;;;0.50;99.90;;;0.66;100.00;-20699.72;4947407;28;20204;-70
2021/04/12 03:43:16;;;;;;;0.70;0.60;;;0.40;99.90;;;0.62;100.00;-20698.59;4974779;28;20215;-70
2021/04/12 03:46:23;;;;;;;0.70;0.60;;;0.50;99.90;;;0.75;100.00;-20702.09;4974956;28;20191;-70
2021/04/12 03:49:21;;;;;;;0.70;0.60;;;0.50;99.90;;;0.71;100.00;-20700.97;4942017;28;20212;-69
2021/04/12 03:52:51;;;;;;;0.70;0.60;;;0.40;99.90;;;0.55;100.00;-20696.50;4972906;28;20244;-70
2021/04/12 03:56:05;;;;;;;0.70;0.60;;;0.30;99.90;;;0.44;100.00;-20693.56;4966148;28;20211;-71
2021/04/12 03:59:14;;;;;;;0.68;0.60;;;0.10;99.90;;;0.36;100.00;-20691.47;4941080;28;20704;-71
2021/04/12 04:02:29;;;;;;;0.70;0.70;;;0.10;99.90;;;0.37;100.00;-20691.75;4976391;28;20251;-70
2021/04/12 04:05:53;;;;;;;0.70;0.60;;;0.10;99.90;;;0.27;100.00;-20688.81;4974454;28;20185;-71
2021/04/12 04:08:54;;;;;;;0.73;0.70;;;0.00;99.90;;;0.27;100.00;-20688.94;4963263;28;20192;-70
2021/04/12 04:11:48;;;;;;;0.70;0.70;;;0.10;99.90;;;0.33;100.00;-20690.47;4972965;28;20195;-70
2021/04/12 04:14:51;;;;;;;0.70;0.60;;;0.20;99.90;;;0.42;100.00;-20693.00;4973390;28;20679;-71
2021/04/12 04:18:03;;;;;;;0.70;0.60;;;0.20;99.90;;;0.42;100.00;-20693.00;4973139;28;20210;-70
2021/04/12 04:20:52;;;;;;;0.80;0.80;;;0.20;99.90;;;0.31;100.00;-20690.06;4948325;28;20196;-71
2021/04/12 04:24:07;;;;;;;0.70;0.60;;;0.00;99.90;;;0.21;100.00;-20687.25;4973777;28;20271;-70
2021/04/12 04:27:24;;;;;;;0.70;0.70;;;0.00;99.90;;;0.16;100.00;-20685.88;4883081;28;20214;-70
2021/04/12 04:30:29;;;;;;;0.70;0.60;;;-0.10;99.90;;;0.03;100.00;-20682.22;4951409;28;20200;-70
2021/04/12 04:33:46;;;;;;;0.70;0.60;;;-0.20;99.90;;;-0.02;100.00;-20681.09;4966287;28;20196;-71
2021/04/12 04:36:39;;;;;;;0.70;0.68;;;-0.30;99.90;;;-0.03;100.00;-20680.81;4973173;28;20731;-71
2021/04/12 04:39:50;;;;;;;0.70;0.60;;;-0.40;99.90;;;-0.07;100.00;-20679.72;4973195;28;20675;-71
2021/04/12 04:42:55;;;;;;;0.70;0.60;;;-0.40;99.90;;;-0.15;100.00;-20677.47;4977676;28;20212;-71
2021/04/12 04:45:43;;;;;;;0.70;0.50;;;-0.50;99.90;;;-0.27;100.00;-20674.09;4975330;28;20435;-71
2021/04/12 04:48:32;;;;;;;0.70;0.60;;;-0.50;99.90;;;-0.26;100.00;-20674.38;4977401;28;20199;-71
2021/04/12 04:51:48;;;;;;;0.70;0.60;;;-0.50;99.90;;;-0.25;100.00;-20674.66;4976814;28;20657;-71
2021/04/12 04:54:41;;;;;;;0.70;0.60;;;-0.50;99.90;;;-0.35;100.00;-20672.00;4974723;28;20720;-71
2021/04/12 04:57:33;;;;;;;0.70;0.60;;;-0.60;99.90;;;-0.31;100.00;-20673.13;4977689;28;20227;-71
2021/04/12 05:00:21;;;;;;;0.70;0.60;;;-0.50;99.90;;;-0.23;100.00;-20675.22;4976788;28;20195;-71
2021/04/12 05:03:42;;;;;;;0.80;0.70;;;-0.40;99.90;;;-0.18;100.00;-20676.50;4977566;28;20180;-70
2021/04/12 05:06:50;;;;;;;0.70;0.60;;;-0.50;99.90;;;-0.07;100.00;-20679.72;4977528;28;20192;-72
2021/04/12 05:09:49;;;;;;;0.70;0.60;;;-0.40;99.90;;;-0.01;100.00;-20681.25;4977925;28;20274;-71
2021/04/12 05:12:38;;;;;;;0.70;0.60;;;-0.30;99.90;;;0.01;100.00;-20681.66;4977597;28;20620;-72
2021/04/12 05:15:25;;;;;;;0.80;0.70;;;-0.30;99.90;;;0.13;100.00;-20685.03;4974176;28;20215;-71
2021/04/12 05:18:41;;;;;;;0.70;0.60;;;-0.30;99.90;;;0.12;100.00;-20684.75;4975976;28;20176;-71
2021/04/12 05:21:25;;;;;;;0.70;0.65;;;-0.20;99.90;;;0.05;100.00;-20682.78;4977274;28;20592;-72
2021/04/12 05:24:35;;;;;;;0.70;0.60;;;-0.20;99.90;;;0.14;100.00;-20685.44;4977692;28;20180;-71
2021/04/12 05:28:06;;;;;;;0.75;0.70;;;-0.10;99.90;;;0.27;100.00;-20688.81;4977178;28;20204;-71
2021/04/12 05:31:32;;;;;;;0.70;0.60;;;0.00;99.90;;;0.29;100.00;-20689.50;4963331;28;20212;-70
2021/04/12 05:34:58;;;;;;;0.70;0.70;;;0.00;99.90;;;0.53;100.00;-20696.06;4969482;28;20720;-70
2021/04/12 05:37:51;;;;;;;0.70;0.70;;;0.20;99.90;;;0.67;100.00;-20699.84;4980605;28;20204;-70
2021/04/12 05:40:47;;;;;;;0.70;0.60;;;0.30;99.90;;;0.73;100.00;-20701.66;4977254;28;20215;-70
2021/04/12 05:43:24;;;;;;;0.70;0.60;;;0.30;99.90;;;0.88;100.00;-20705.72;4976895;28;20394;-70
2021/04/12 05:46:26;;;;;;;0.70;0.60;;;0.40;99.90;;;1.06;100.00;-20710.47;4976802;28;20637;-70
2021/04/12 05:49:16;;;;;;;0.70;0.60;;;0.60;99.90;;;1.25;100.00;-20715.78;4976670;28;20645;-71
2021/04/12 05:52:11;;;;;;;0.70;0.60;;;0.70;99.90;;;1.26;100.00;-20716.06;4974342;28;20204;-70
2021/04/12 05:55:05;;;;;;;0.70;0.60;;;0.80;99.90;;;1.42;100.00;-20720.53;4976967;28;20181;-70
2021/04/12 05:58:26;;;;;;;0.70;0.60;;;0.90;99.90;;;1.44;100.00;-20721.09;4977044;28;20232;-71
2021/04/12 06:01:13;;;;;;;0.90;0.90;;;0.90;99.90;;;1.35;100.00;-20718.59;4948477;29;20208;-70
2021/04/12 06:03:46;;;;;;;0.70;0.60;;;0.90;99.90;;;1.41;100.00;-20720.28;4954758;29;20189;-70
2021/04/12 06:06:57;;;;;;;0.70;0.60;;;0.90;99.90;;;1.40;100.00;-20719.84;4968233;28;20661;-70
2021/04/12 06:10:04;;;;;;;0.70;0.60;;;0.90;99.90;;;1.58;100.00;-20724.75;4976807;28;20661;-70
2021/04/12 06:13:28;;;;;;;0.70;0.60;;;1.10;99.90;;;1.73;100.00;-20728.78;4974902;28;20319;-70
2021/04/12 06:16:48;;;;;;;0.70;0.60;;;1.20;99.90;;;2.01;100.00;-20736.47;4948786;29;20201;-70
2021/04/12 06:19:54;;;;;;;0.70;0.60;;;1.40;99.90;;;1.96;100.00;-20735.06;4957146;28;20270;-72
2021/04/12 06:23:04;;;;;;;0.70;0.60;;;1.40;99.90;;;2.02;100.00;-20736.75;4975800;28;20184;-72
2021/04/12 06:26:24;;;;;;;0.70;0.60;;;1.40;99.90;;;2.13;100.00;-20739.81;4961306;28;20238;-70
2021/04/12 06:29:07;;;;;;;0.70;0.60;;;1.50;99.90;;;2.39;100.00;-20747.09;4962714;28;20307;-70
2021/04/12 06:32:39;;;;;;;0.70;0.60;;;1.70;99.90;;;2.50;100.00;-20749.88;4975648;28;20216;-70
2021/04/12 06:35:39;;;;;;;0.70;0.60;;;1.80;99.90;;;2.60;100.00;-20752.81;4916503;29;20183;-70
2021/04/12 06:38:45;;;;;;;0.70;0.60;;;1.90;99.90;;;3.19;100.00;-20768.72;4932759;29;20206;-70
2021/04/12 06:41:45;;;;;;;0.70;0.60;;;2.30;99.90;;;3.65;100.00;-20781.28;4958833;28;20188;-70
2021/04/12 06:44:59;;;;;;;0.70;0.60;;;2.60;99.90;;;3.79;100.00;-20785.31;4975528;28;20263;-70
2021/04/12 06:48:20;;;;;;;0.70;0.60;;;2.70;99.90;;;4.16;100.00;-20795.22;4976516;28;20592;-70
2021/04/12 06:51:32;;;;;;;0.60;0.50;;;2.80;99.90;;;4.36;100.00;-20800.94;4971047;28;20262;-69
2021/04/12 06:55:07;;;;;;;0.70;0.50;;;3.20;99.90;;;4.94;100.00;-20816.53;4974603;28;20200;-71
2021/04/12 06:58:46;;;;;;;0.70;0.60;;;3.50;99.90;;;6.21;100.00;-20851.31;4934930;29;20262;-71
2021/04/12 07:02:09;;;;;;;0.70;0.50;;;4.20;99.90;;;7.13;100.00;-20876.31;4881451;29;20477;-71
2021/04/12 07:05:14;;;;;;;0.60;0.50;;;4.40;99.90;;;7.41;100.00;-20883.97;4899388;29;20442;-71
2021/04/12 07:08:20;;;;;;;1.00;0.90;;;4.90;99.90;;;7.42;100.00;-20884.09;4975813;28;20526;-70
2021/04/12 07:11:36;;;;;;;0.70;0.60;;;5.00;99.90;;;7.04;100.00;-20873.69;4975644;28;20443;-70
2021/04/12 07:14:56;;;;;;;0.70;0.60;;;4.90;99.90;;;6.39;100.00;-20856.03;4955116;29;20451;-69
2021/04/12 07:18:26;;;;;;;0.70;0.60;;;4.50;99.90;;;6.20;100.00;-20850.91;4962721;28;20443;-70
2021/04/12 07:21:33;;;;;;;0.70;0.60;;;4.40;99.90;;;6.15;100.00;-20849.50;4967220;28;20448;-71
2021/04/12 07:24:49;;;;;;;0.70;0.63;;;4.20;99.90;;;5.82;100.00;-20840.75;4974845;28;20447;-71
2021/04/12 07:28:26;;;;;;;0.70;0.60;;;4.20;99.90;;;5.80;100.00;-20840.19;5107311;27;20527;-70
2021/04/12 07:31:46;;;;;;;1.13;1.03;;;4.50;99.90;;;6.13;100.00;-20848.94;5060135;28;20822;-70
2021/04/12 07:34:58;;;;;;;0.70;0.60;;;4.20;99.90;;;5.55;100.00;-20833.22;5103857;28;20422;-72
2021/04/12 07:38:09;;;;;;;0.70;0.60;;;3.90;99.90;;;5.54;100.00;-20833.09;5110745;28;20210;-71
2021/04/12 07:41:48;;;;;;;0.70;0.50;;;3.90;99.90;;;5.64;100.00;-20835.72;5066236;28;20512;-72
2021/04/12 07:45:31;;;;;;;0.70;0.50;;;3.90;99.90;;;5.45;100.00;-20830.59;5067575;28;20208;-70
2021/04/12 07:48:41;;;;;;;0.70;0.60;;;4.00;99.90;;;6.02;100.00;-20846.16;5091747;28;20269;-70
2021/04/12 07:51:50;;;;;;;0.70;0.60;;;4.40;99.90;;;6.83;100.00;-20868.13;5087341;28;20656;-71
2021/04/12 07:55:00;;;;;;;0.70;0.50;;;4.90;99.90;;;7.35;100.00;-20882.16;5074662;28;20530;-70
2021/04/12 07:58:34;;;;;;;0.70;0.60;;;4.90;99.90;;;7.02;100.00;-20873.28;5088272;28;20531;-70
2021/04/12 08:02:05;;;;;;;0.70;0.60;;;4.80;99.90;;;6.91;100.00;-20870.22;5088993;28;20835;-71
2021/04/12 08:05:36;;;;;;;0.70;0.53;;;4.90;99.90;;;7.13;100.00;-20876.19;5095608;28;20456;-71
2021/04/12 08:09:24;;;;;;;0.70;0.50;;;4.90;99.90;;;6.41;100.00;-20856.59;5110428;28;20416;-70
2021/04/12 08:12:46;;;;;;;1.17;1.07;;;4.70;99.90;;;6.68;100.00;-20864.09;5060941;28;20466;-71
2021/04/12 08:16:02;;;;;;;0.70;0.60;;;4.70;99.90;;;5.77;100.00;-20839.34;5100510;28;20935;-70
2021/04/12 08:19:26;;;;;;;1.10;1.00;;;4.60;99.90;;;6.37;100.00;-20855.47;5109682;28;20443;-71
2021/04/12 08:22:52;;;;;;;0.70;0.60;;;4.50;99.90;;;6.25;100.00;-20852.41;5104370;28;20443;-71
2021/04/12 08:26:12;;;;;;;0.70;0.60;;;4.50;99.90;;;6.30;100.00;-20853.69;5089816;28;20438;-70
2021/04/12 08:29:43;;;;;;;0.70;0.50;;;4.60;99.90;;;6.13;100.00;-20848.94;5046827;28;20472;-70
2021/04/12 08:32:43;;;;;;;1.13;1.00;;;4.70;99.90;;;6.15;100.00;-20849.50;5097184;28;20464;-70
2021/04/12 08:36:11;;;;;;;0.70;0.53;;;4.50;99.90;;;5.60;100.00;-20834.47;5092255;28;20440;-71
2021/04/12 08:39:46;;;;;;;1.20;1.07;;;4.60;99.90;;;5.72;100.00;-20837.97;5096827;28;20447;-70
2021/04/12 08:42:47;;;;;;;0.70;0.60;;;4.40;99.90;;;5.61;100.00;-20834.91;5095098;28;20836;-70
2021/04/12 08:46:01;;;;;;;1.07;0.97;;;4.40;99.90;;;5.48;100.00;-20831.28;5095940;28;20798;-70
2021/04/12 08:49:09;;;;;;;0.70;0.60;;;4.50;99.90;;;5.93;100.00;-20843.66;5089401;28;20537;-69
2021/04/12 08:52:21;;;;;;;0.70;0.60;;;4.60;99.90;;;6.09;100.00;-20847.97;5085440;28;20529;-70
2021/04/12 08:55:28;;;;;;;0.70;0.60;;;4.70;99.90;;;6.42;100.00;-20856.88;5095953;28;20471;-70
2021/04/12 08:58:31;;;;;;;0.70;0.60;;;4.80;99.90;;;6.34;100.00;-20854.66;5097120;28;20218;-70
2021/04/12 09:02:07;;;;;;;0.70;0.50;;;4.90;99.90;;;7.34;100.00;-20881.88;5095997;28;20454;-70
2021/04/12 09:05:25;;;;;;;0.70;0.60;;;5.10;99.90;;;7.89;100.00;-20896.88;5048835;28;20454;-70
2021/04/12 09:08:46;;;;;;;0.70;0.60;;;5.80;99.90;;;8.34;100.00;-20909.22;5095499;28;20450;-70
2021/04/12 09:11:56;;;;;;;0.70;0.60;;;6.10;99.90;;;8.62;100.00;-20916.72;5095286;28;20419;-70
2021/04/12 09:15:18;;;;;;;0.70;0.60;;;6.20;99.90;;;9.26;100.00;-20934.19;5090688;28;21025;-69
2021/04/12 09:18:44;;;;;;;0.70;0.60;;;6.40;99.90;;;8.54;100.00;-20914.50;5090117;28;20451;-69
2021/04/12 09:22:04;;;;;;;0.70;0.60;;;6.60;99.90;;;8.75;100.00;-20920.31;5090197;28;20940;-70
2021/04/12 09:25:02;;;;;;;0.80;0.80;;;7.30;99.90;;;9.49;100.00;-20940.41;5087165;28;20443;-69
2021/04/12 09:27:45;;;;;;;0.80;0.70;;;7.00;99.90;;;10.29;100.00;-20962.16;5076596;28;20483;-69
2021/04/12 09:31:05;;;;;;;0.70;0.70;;;7.30;99.90;;;9.47;100.00;-20939.84;5093703;28;20510;-69
2021/04/12 09:34:05;;;;;;;0.70;0.60;;;7.40;99.90;;;9.61;100.00;-20943.59;5081156;28;20922;-69
2021/04/12 09:37:26;;;;;;;0.70;0.70;;;6.70;99.90;;;10.22;100.00;-20960.06;5094807;28;20423;-71
2021/04/12 09:40:49;;;;;;;0.80;0.80;;;7.40;99.90;;;11.46;100.00;-20993.81;5092655;28;20466;-71
2021/04/12 09:44:23;;;;;;;0.70;0.60;;;8.00;99.90;;;12.71;100.00;-21027.50;5075687;28;20471;-69
2021/04/12 09:47:48;;;;;;;0.70;0.60;;;8.90;99.90;;;12.52;100.00;-21022.53;5085024;28;20465;-69
2021/04/12 09:51:01;;;;;;;0.70;0.60;;;8.60;99.90;;;10.68;100.00;-20972.53;5035091;28;20454;-70
2021/04/12 09:54:34;;;;;;;0.70;0.60;;;8.60;99.90;;;10.24;100.00;-20960.75;5056798;28;21004;-70
2021/04/12 09:57:55;;;;;;;0.70;0.60;;;8.00;99.90;;;12.86;100.00;-21031.50;5012319;28;20553;-70
2021/04/12 10:00:37;;;;;;;0.70;0.70;;;8.70;99.90;;;14.44;100.00;-21074.22;4989177;28;20964;-70
2021/04/12 10:03:40;;;;;;;0.80;0.70;;;9.30;99.90;;;13.39;100.00;-21046.00;5074265;28;20433;-70
2021/04/12 10:06:59;;;;;;;0.70;0.60;;;8.70;99.90;;;11.83;100.00;-21003.75;5080763;28;20462;-71
2021/04/12 10:10:07;;;;;;;0.70;0.60;;;8.00;99.90;;;11.35;100.00;-20990.91;5092556;28;20438;-71
2021/04/12 10:13:21;;;;;;;1.20;1.10;;;7.90;99.90;;;12.63;100.00;-21025.31;5093046;28;20822;-71
2021/04/12 10:16:03;;;;;;;0.70;0.60;;;8.30;99.90;;;10.10;100.00;-20956.88;5094452;28;20773;-71
2021/04/12 10:18:42;;;;;;;0.80;0.70;;;8.50;99.90;;;8.40;100.00;-20910.88;5093334;28;20435;-71
2021/04/12 10:21:28;;;;;;;0.70;0.70;;;7.70;99.90;;;8.87;100.00;-20923.66;5079890;28;20439;-71
2021/04/12 10:24:23;;;;;;;0.80;0.60;;;7.10;99.90;;;9.04;100.00;-20928.22;5081050;28;20425;-71
2021/04/12 10:26:57;;;;;;;0.70;0.60;;;6.50;99.90;;;7.98;100.00;-20899.38;5084981;28;20841;-71
2021/04/12 10:29:34;;;;;;;2.73;1.13;;;6.30;99.90;;;7.29;100.00;-20880.50;5073811;28;20430;-70
2021/04/12 10:32:13;;;;;;;0.77;0.63;;;6.00;99.90;;;6.54;100.00;-20860.34;5074186;28;20427;-69
2021/04/12 10:34:46;;;;;;;0.80;0.70;;;5.70;99.90;;;6.36;100.00;-20855.22;5086242;28;20431;-69
2021/04/12 10:37:40;;;;;;;0.70;0.60;;;5.50;99.90;;;6.48;100.00;-20858.53;5073786;28;20408;-70
2021/04/12 10:40:23;;;;;;;0.70;0.60;;;5.20;99.90;;;6.16;100.00;-20849.94;5074513;28;20887;-69
2021/04/12 10:43:00;;;;;;;0.70;0.60;;;5.50;99.90;;;6.50;100.00;-20859.09;5072092;28;20512;-70
2021/04/12 10:45:31;;;;;;;0.70;0.60;;;5.70;99.90;;;6.68;100.00;-20864.09;5074665;28;20441;-69
2021/04/12 10:48:06;;;;;;;0.70;0.60;;;5.80;99.90;;;6.17;100.00;-20850.06;5076772;28;20480;-69
2021/04/12 10:50:47;;;;;;;0.70;0.60;;;5.50;99.90;;;6.17;100.00;-20850.19;5079480;28;20433;-69
2021/04/12 10:53:35;;;;;;;0.70;0.60;;;5.40;99.90;;;6.03;100.00;-20846.31;5072596;28;20446;-70
2021/04/12 10:56:09;;;;;;;0.70;0.60;;;5.40;99.90;;;6.09;100.00;-20847.97;5074618;28;20414;-70
2021/04/12 10:59:18;;;;;;;0.70;0.60;;;5.50;99.90;;;7.36;100.00;-20882.44;5092931;28;20828;-71
2021/04/12 11:01:50;;;;;;;0.80;0.60;;;6.40;99.90;;;7.43;100.00;-20884.38;5092385;28;21064;-70
2021/04/12 11:04:59;;;;;;;0.70;0.60;;;6.80;99.90;;;10.30;100.00;-20962.28;5079322;28;20435;-70
2021/04/12 11:07:47;;;;;;;1.10;1.03;;;8.30;99.90;;;12.60;100.00;-21024.63;5072042;28;20546;-69
2021/04/12 11:10:40;;;;;;;0.70;0.60;;;9.50;99.90;;;13.41;100.00;-21046.41;5093381;28;20485;-69
2021/04/12 11:13:10;;;;;;;1.40;1.20;;;10.40;99.90;;;13.17;100.00;-21039.94;5093198;28;20439;-69
2021/04/12 11:16:01;;;;;;;0.70;0.60;;;10.90;99.90;;;13.43;100.00;-21046.97;5093576;28;20418;-70
2021/04/12 11:18:33;;;;;;;0.70;0.70;;;9.40;99.90;;;11.08;100.00;-20983.59;5078317;28;20433;-71
2021/04/12 11:21:23;;;;;;;0.80;0.70;;;7.50;99.90;;;8.02;100.00;-20900.34;5093348;28;20416;-72
2021/04/12 11:24:06;;;;;;;0.70;0.60;;;6.00;99.90;;;6.62;100.00;-20862.44;5078340;28;20425;-70
2021/04/12 11:27:41;;;;;;;0.70;0.60;;;5.00;99.90;;;5.75;100.00;-20838.66;5072058;28;20555;-69
2021/04/12 11:30:20;;;;;;;0.70;0.60;;;4.50;99.90;;;5.22;100.00;-20824.31;5093695;28;20415;-70
2021/04/12 11:33:50;;;;;;;0.70;0.60;;;4.10;99.90;;;5.01;100.00;-20818.47;5087416;28;20430;-69
2021/04/12 11:36:33;;;;;;;0.70;0.60;;;4.10;99.90;;;4.78;100.00;-20812.34;5041018;28;20469;-69
2021/04/12 11:39:12;;;;;;;0.70;0.60;;;4.20;99.90;;;5.26;100.00;-20825.44;5072785;28;20189;-69
2021/04/12 11:41:53;;;;;;;0.70;0.60;;;4.40;99.90;;;6.53;100.00;-20859.94;5089393;28;20223;-69
2021/04/12 11:44:28;;;;;;;0.70;0.63;;;5.30;99.90;;;8.47;100.00;-20912.69;5093167;28;20422;-69
2021/04/12 11:47:18;;;;;;;0.70;0.60;;;6.40;99.90;;;9.71;100.00;-20946.22;5081692;28;20458;-68
2021/04/12 11:50:15;;;;;;;0.70;0.60;;;8.00;99.90;;;11.25;100.00;-20988.00;5091839;28;20797;-69
2021/04/12 11:52:55;;;;;;;0.80;0.70;;;8.30;99.90;;;10.99;100.00;-20980.97;5082364;28;20981;-69
2021/04/12 11:55:33;;;;;;;0.70;0.60;;;8.90;99.90;;;11.74;100.00;-21001.41;5089521;28;20508;-69
2021/04/12 11:58:16;;;;;;;0.70;0.60;;;9.00;99.90;;;12.29;100.00;-21016.19;5090572;28;20457;-69
2021/04/12 12:00:57;;;;;;;0.70;0.60;;;9.20;99.90;;;12.11;100.00;-21011.38;5079095;28;20434;-69
2021/04/12 12:03:53;;;;;;;0.73;0.70;;;9.50;99.90;;;13.07;100.00;-21037.31;5079805;28;20926;-69
2021/04/12 12:06:39;;;;;;;0.70;0.70;;;9.80;99.90;;;13.43;100.00;-21047.09;5091828;28;20495;-69
2021/04/12 12:09:25;;;;;;;0.70;0.70;;;10.30;99.90;;;14.19;100.00;-21067.63;5081799;28;20435;-70
2021/04/12 12:12:02;;;;;;;0.70;0.60;;;11.00;99.90;;;12.57;100.00;-21023.94;5085380;28;20450;-69
2021/04/12 12:14:40;;;;;;;0.70;0.60;;;9.80;99.90;;;11.51;100.00;-20995.19;5091544;28;20475;-70
2021/04/12 12:17:16;;;;;;;0.70;0.60;;;8.40;99.90;;;9.70;100.00;-20945.94;5090495;28;20449;-70
2021/04/12 12:19:50;;;;;;;0.80;0.80;;;7.70;99.90;;;8.06;100.00;-20901.59;5086953;28;20446;-70
2021/04/12 12:22:25;;;;;;;0.70;0.60;;;6.10;99.90;;;6.98;100.00;-20872.28;5092990;28;20466;-70
2021/04/12 12:25:06;;;;;;;0.70;0.60;;;5.40;99.90;;;6.49;100.00;-20858.81;5092060;28;20467;-69
2021/04/12 12:27:37;;;;;;;0.70;0.60;;;4.90;99.90;;;6.44;100.00;-20857.56;5091515;28;20475;-70
2021/04/12 12:30:17;;;;;;;0.80;0.70;;;4.80;99.90;;;7.48;100.00;-20885.91;5086924;28;20402;-69
2021/04/12 12:32:58;;;;;;;0.70;0.60;;;5.60;99.90;;;8.67;100.00;-20918.25;5079805;28;20609;-69
2021/04/12 12:35:51;;;;;;;0.70;0.60;;;6.80;99.90;;;9.52;100.00;-20941.25;5093779;28;20499;-70